»·PEaware :: UAL241 KPDX-KSEA

UAL241 :: KPDX-KSEA

FLIGHT INFORMATION

Flight Status: Arrived
Operator:
United Airlines
More flights by this operator :: More flights under this callsign
Pilot: Ryan H. (12491)
Aircraft: BOEING 737-800
(B738)
More flights by this aircraft type
Origin: KPDX Portland Intl
United States
Destination: KSEA Seattle-Tacoma Intl
United States
More flights between these airports :: More routes between these airports
Route: +COUGA KRIEG HAWKZ6
File this flight plan on PilotEdge
Remarks:
Altitude:
(Current/Filed)
220ft
Speed:
(Current/Filed)
450kts
Departed: 21-Dec-17 07:27 PM
Arrived: 21-Dec-17 08:01 PM
Distance/Time
Traveled:
112nm/0:33
Distance/Time
To Go:
Arrived

Flight Plot

Page will automatically refresh every two minutes.

Flight plan parsing failed; only flown route is shown


Map Options




Map Legend


Flown Route
Filed Route
Departure Airport
Arrival Airport
Navaid (VOR, NDB)
Fix

Horizontal Profiles

Position Reports

Time Latitude Longitude Heading Altitude Ground
Speed
21-Dec-17 19:18 45.589295 -122.597982 30 27ft 0kts
21-Dec-17 19:19 45.589295 -122.597982 30 27ft 0kts
21-Dec-17 19:20 45.589295 -122.597982 30 27ft 0kts
21-Dec-17 19:21 45.589295 -122.597982 30 27ft 0kts
21-Dec-17 19:22 45.589295 -122.597982 30 27ft 0kts
21-Dec-17 19:23 45.589295 -122.597982 30 27ft 0kts
21-Dec-17 19:24 45.589295 -122.597982 30 27ft 0kts
21-Dec-17 19:25 45.589295 -122.597982 30 27ft 0kts
21-Dec-17 19:26 45.589295 -122.597982 30 27ft 0kts
21-Dec-17 19:27 45.589296 -122.597981 30 27ft 0kts
21-Dec-17 19:28 45.588190 -122.598313 340 27ft 1kts
21-Dec-17 19:29 45.589324 -122.601099 298 27ft 16kts
21-Dec-17 19:30 45.592452 -122.600388 46 27ft 22kts
21-Dec-17 19:31 45.594508 -122.597426 43 27ft 0kts
21-Dec-17 19:32 45.594935 -122.595995 110 27ft 13kts
21-Dec-17 19:33 45.583459 -122.566673 119 552ft 182kts
21-Dec-17 19:34 45.557545 -122.499379 101 4329ft 217kts
21-Dec-17 19:35 45.600849 -122.451704 343 7638ft 255kts
21-Dec-17 19:36 45.670965 -122.483198 335 11178ft 278kts
21-Dec-17 19:37 45.750915 -122.520532 336 13841ft 328kts
21-Dec-17 19:38 45.843793 -122.563318 336 16483ft 367kts
21-Dec-17 19:39 45.943537 -122.609183 336 19379ft 386kts
21-Dec-17 19:40 46.047477 -122.657066 336 22060ft 396kts
21-Dec-17 19:41 46.157789 -122.691492 346 22402ft 411kts
21-Dec-17 19:42 46.270658 -122.712818 345 22401ft 409kts
21-Dec-17 19:43 46.384860 -122.726309 352 22391ft 419kts
21-Dec-17 19:44 46.501309 -122.729036 350 22379ft 416kts
21-Dec-17 19:45 46.612140 -122.732991 350 20616ft 385kts
21-Dec-17 19:46 46.713611 -122.736506 349 18718ft 344kts
21-Dec-17 19:47 46.801041 -122.721490 27 17677ft 335kts
21-Dec-17 19:48 46.874142 -122.634283 27 15803ft 343kts
21-Dec-17 19:49 46.946911 -122.556429 10 14891ft 291kts
21-Dec-17 19:50 47.025612 -122.523785 7 13593ft 294kts
21-Dec-17 19:51 47.103266 -122.494340 356 12350ft 280kts
21-Dec-17 19:52 47.170715 -122.484487 358 11304ft 275kts
21-Dec-17 19:53 47.245886 -122.471691 1 10124ft 269kts
21-Dec-17 19:54 47.310915 -122.461920 1 9108ft 263kts
21-Dec-17 19:55 47.381573 -122.454726 354 8167ft 242kts
21-Dec-17 19:56 47.447577 -122.455560 356 6988ft 232kts
21-Dec-17 19:57 47.510355 -122.455745 356 5680ft 221kts
21-Dec-17 19:58 47.571475 -122.456237 356 4139ft 228kts
21-Dec-17 19:59 47.637584 -122.459300 356 3633ft 215kts
21-Dec-17 20:00 47.670848 -122.418006 86 3660ft 197kts
21-Dec-17 20:01 47.672288 -122.351675 86 3638ft 189kts
21-Dec-17 20:02 47.632207 -122.306174 178 3641ft 171kts
21-Dec-17 20:03 47.594945 -122.306524 179 3107ft 152kts
21-Dec-17 20:04 47.547027 -122.306983 180 2113ft 148kts
21-Dec-17 20:05 47.512180 -122.307624 179 1489ft 150kts
21-Dec-17 20:06 47.470593 -122.307720 180 600ft 147kts
21-Dec-17 20:07 47.451991 -122.306688 135 442ft 0kts
21-Dec-17 20:08 47.451218 -122.306137 168 442ft 11kts
21-Dec-17 20:09 47.448119 -122.303285 152 442ft 25kts
21-Dec-17 20:10 47.446251 -122.302692 276 442ft 0kts

Navigation Log

Ident Type
Flight plan parsing failed, navigation log unavailable